sensor_id;sensor_type;location;lat;lon;timestamp;P1;durP1;ratioP1;P2;durP2;ratioP2
27899;SDS011;15243;50.726;7.080;2023-02-12T00:01:20;75.10;;;35.33;;
27899;SDS011;15243;50.726;7.080;2023-02-12T00:03:48;67.85;;;35.03;;
27899;SDS011;15243;50.726;7.080;2023-02-12T00:06:15;73.28;;;36.50;;
27899;SDS011;15243;50.726;7.080;2023-02-12T00:08:42;74.63;;;38.13;;
27899;SDS011;15243;50.726;7.080;2023-02-12T00:11:13;75.85;;;36.83;;
27899;SDS011;15243;50.726;7.080;2023-02-12T00:13:45;71.35;;;36.92;;
27899;SDS011;15243;50.726;7.080;2023-02-12T00:16:16;70.10;;;34.28;;
27899;SDS011;15243;50.726;7.080;2023-02-12T00:18:45;75.47;;;36.35;;
27899;SDS011;15243;50.726;7.080;2023-02-12T00:21:13;74.85;;;37.55;;
27899;SDS011;15243;50.726;7.080;2023-02-12T00:23:40;73.32;;;35.83;;
27899;SDS011;15243;50.726;7.080;2023-02-12T00:26:08;73.25;;;36.20;;
27899;SDS011;15243;50.726;7.080;2023-02-12T00:28:36;80.05;;;36.53;;
27899;SDS011;15243;50.726;7.080;2023-02-12T00:31:07;77.97;;;37.08;;
27899;SDS011;15243;50.726;7.080;2023-02-12T00:33:36;81.93;;;38.80;;
27899;SDS011;15243;50.726;7.080;2023-02-12T00:36:03;71.82;;;34.90;;
27899;SDS011;15243;50.726;7.080;2023-02-12T00:38:30;72.10;;;35.67;;
27899;SDS011;15243;50.726;7.080;2023-02-12T00:40:58;78.72;;;39.08;;
27899;SDS011;15243;50.726;7.080;2023-02-12T00:43:24;73.15;;;37.25;;
27899;SDS011;15243;50.726;7.080;2023-02-12T00:45:51;81.97;;;37.65;;
27899;SDS011;15243;50.726;7.080;2023-02-12T00:48:21;80.45;;;38.10;;
27899;SDS011;15243;50.726;7.080;2023-02-12T00:50:48;72.88;;;37.00;;
27899;SDS011;15243;50.726;7.080;2023-02-12T00:53:15;79.85;;;37.75;;
27899;SDS011;15243;50.726;7.080;2023-02-12T00:55:42;78.07;;;37.15;;
27899;SDS011;15243;50.726;7.080;2023-02-12T00:58:09;84.82;;;36.78;;
27899;SDS011;15243;50.726;7.080;2023-02-12T01:00:36;84.40;;;38.33;;
27899;SDS011;15243;50.726;7.080;2023-02-12T01:03:03;86.00;;;39.60;;
27899;SDS011;15243;50.726;7.080;2023-02-12T01:05:31;74.22;;;35.95;;
27899;SDS011;15243;50.726;7.080;2023-02-12T01:07:58;76.65;;;36.15;;
27899;SDS011;15243;50.726;7.080;2023-02-12T01:10:25;81.80;;;37.38;;
27899;SDS011;15243;50.726;7.080;2023-02-12T01:12:52;75.60;;;34.60;;
27899;SDS011;15243;50.726;7.080;2023-02-12T01:15:19;82.10;;;38.47;;
27899;SDS011;15243;50.726;7.080;2023-02-12T01:17:46;93.60;;;46.97;;
27899;SDS011;15243;50.726;7.080;2023-02-12T01:20:15;80.97;;;39.22;;
27899;SDS011;15243;50.726;7.080;2023-02-12T01:22:43;76.28;;;36.03;;
27899;SDS011;15243;50.726;7.080;2023-02-12T01:25:10;76.65;;;37.85;;
27899;SDS011;15243;50.726;7.080;2023-02-12T01:27:38;73.35;;;36.40;;
27899;SDS011;15243;50.726;7.080;2023-02-12T01:30:07;70.38;;;34.50;;
27899;SDS011;15243;50.726;7.080;2023-02-12T01:32:36;69.03;;;34.95;;
27899;SDS011;15243;50.726;7.080;2023-02-12T01:35:03;71.15;;;35.20;;
27899;SDS011;15243;50.726;7.080;2023-02-12T01:37:30;68.63;;;33.10;;
27899;SDS011;15243;50.726;7.080;2023-02-12T01:40:00;71.32;;;37.05;;
27899;SDS011;15243;50.726;7.080;2023-02-12T01:42:27;72.22;;;35.78;;
27899;SDS011;15243;50.726;7.080;2023-02-12T01:47:42;71.60;;;35.40;;
27899;SDS011;15243;50.726;7.080;2023-02-12T01:50:11;76.35;;;36.15;;
27899;SDS011;15243;50.726;7.080;2023-02-12T01:52:45;75.93;;;37.22;;
27899;SDS011;15243;50.726;7.080;2023-02-12T01:55:16;71.13;;;35.67;;
27899;SDS011;15243;50.726;7.080;2023-02-12T01:57:45;74.88;;;36.85;;
27899;SDS011;15243;50.726;7.080;2023-02-12T02:00:17;76.55;;;37.05;;
27899;SDS011;15243;50.726;7.080;2023-02-12T02:02:50;70.47;;;34.05;;
27899;SDS011;15243;50.726;7.080;2023-02-12T02:05:39;70.78;;;36.30;;
27899;SDS011;15243;50.726;7.080;2023-02-12T02:08:11;68.38;;;34.40;;
27899;SDS011;15243;50.726;7.080;2023-02-12T02:10:39;70.13;;;36.15;;
27899;SDS011;15243;50.726;7.080;2023-02-12T02:13:05;67.85;;;34.35;;
27899;SDS011;15243;50.726;7.080;2023-02-12T02:15:53;71.20;;;35.70;;
27899;SDS011;15243;50.726;7.080;2023-02-12T02:27:13;66.50;;;33.80;;
27899;SDS011;15243;50.726;7.080;2023-02-12T02:29:47;68.63;;;35.20;;
27899;SDS011;15243;50.726;7.080;2023-02-12T02:32:22;69.43;;;35.78;;
27899;SDS011;15243;50.726;7.080;2023-02-12T02:34:54;60.50;;;33.72;;
27899;SDS011;15243;50.726;7.080;2023-02-12T02:37:31;62.95;;;33.53;;
27899;SDS011;15243;50.726;7.080;2023-02-12T02:42:40;69.38;;;34.70;;
27899;SDS011;15243;50.726;7.080;2023-02-12T02:45:11;68.15;;;34.42;;
27899;SDS011;15243;50.726;7.080;2023-02-12T02:47:51;69.55;;;36.13;;
27899;SDS011;15243;50.726;7.080;2023-02-12T02:50:31;66.30;;;33.38;;
27899;SDS011;15243;50.726;7.080;2023-02-12T02:53:08;61.00;;;32.58;;
27899;SDS011;15243;50.726;7.080;2023-02-12T02:55:43;63.00;;;32.75;;
27899;SDS011;15243;50.726;7.080;2023-02-12T02:58:19;66.63;;;33.15;;
27899;SDS011;15243;50.726;7.080;2023-02-12T03:00:56;62.53;;;32.70;;
27899;SDS011;15243;50.726;7.080;2023-02-12T03:03:31;65.55;;;33.80;;
27899;SDS011;15243;50.726;7.080;2023-02-12T03:06:02;66.93;;;34.00;;
27899;SDS011;15243;50.726;7.080;2023-02-12T03:08:40;64.43;;;34.33;;
27899;SDS011;15243;50.726;7.080;2023-02-12T03:11:24;65.82;;;34.22;;
27899;SDS011;15243;50.726;7.080;2023-02-12T03:13:55;69.05;;;33.13;;
27899;SDS011;15243;50.726;7.080;2023-02-12T03:16:25;64.70;;;33.40;;
27899;SDS011;15243;50.726;7.080;2023-02-12T03:18:56;61.25;;;32.50;;
27899;SDS011;15243;50.726;7.080;2023-02-12T03:21:50;66.07;;;32.67;;
27899;SDS011;15243;50.726;7.080;2023-02-12T03:27:03;74.03;;;33.10;;
27899;SDS011;15243;50.726;7.080;2023-02-12T03:29:38;75.63;;;35.25;;
27899;SDS011;15243;50.726;7.080;2023-02-12T03:32:09;73.57;;;36.30;;
27899;SDS011;15243;50.726;7.080;2023-02-12T03:40:22;73.25;;;34.80;;
27899;SDS011;15243;50.726;7.080;2023-02-12T03:54:08;72.32;;;34.83;;
27899;SDS011;15243;50.726;7.080;2023-02-12T03:56:39;71.85;;;33.60;;
27899;SDS011;15243;50.726;7.080;2023-02-12T03:59:08;73.50;;;33.88;;
27899;SDS011;15243;50.726;7.080;2023-02-12T04:01:35;71.40;;;34.80;;
27899;SDS011;15243;50.726;7.080;2023-02-12T04:04:03;66.90;;;31.90;;
27899;SDS011;15243;50.726;7.080;2023-02-12T04:06:32;72.35;;;34.88;;
27899;SDS011;15243;50.726;7.080;2023-02-12T04:09:06;77.32;;;35.10;;
27899;SDS011;15243;50.726;7.080;2023-02-12T04:11:50;73.05;;;34.42;;
27899;SDS011;15243;50.726;7.080;2023-02-12T04:25:45;69.35;;;33.65;;
27899;SDS011;15243;50.726;7.080;2023-02-12T04:31:12;69.80;;;36.15;;
27899;SDS011;15243;50.726;7.080;2023-02-12T04:33:50;73.03;;;33.03;;
27899;SDS011;15243;50.726;7.080;2023-02-12T04:36:44;72.47;;;34.72;;
27899;SDS011;15243;50.726;7.080;2023-02-12T04:39:21;65.50;;;34.15;;
27899;SDS011;15243;50.726;7.080;2023-02-12T04:41:52;71.50;;;33.95;;
27899;SDS011;15243;50.726;7.080;2023-02-12T04:44:21;69.75;;;34.22;;
27899;SDS011;15243;50.726;7.080;2023-02-12T04:46:50;71.13;;;35.47;;
27899;SDS011;15243;50.726;7.080;2023-02-12T04:49:18;69.05;;;35.10;;
27899;SDS011;15243;50.726;7.080;2023-02-12T04:51:47;59.97;;;32.80;;
27899;SDS011;15243;50.726;7.080;2023-02-12T04:54:14;72.20;;;35.53;;
27899;SDS011;15243;50.726;7.080;2023-02-12T04:56:42;69.47;;;35.72;;
27899;SDS011;15243;50.726;7.080;2023-02-12T04:59:09;68.75;;;35.20;;
27899;SDS011;15243;50.726;7.080;2023-02-12T05:01:37;69.28;;;36.30;;
27899;SDS011;15243;50.726;7.080;2023-02-12T05:04:05;67.28;;;35.97;;
27899;SDS011;15243;50.726;7.080;2023-02-12T05:06:36;67.80;;;33.92;;
27899;SDS011;15243;50.726;7.080;2023-02-12T05:09:04;68.57;;;33.38;;
27899;SDS011;15243;50.726;7.080;2023-02-12T05:11:32;69.28;;;34.85;;
27899;SDS011;15243;50.726;7.080;2023-02-12T05:13:59;63.63;;;32.70;;
27899;SDS011;15243;50.726;7.080;2023-02-12T05:16:26;68.57;;;34.33;;
27899;SDS011;15243;50.726;7.080;2023-02-12T05:18:53;66.57;;;32.75;;
27899;SDS011;15243;50.726;7.080;2023-02-12T05:21:19;71.40;;;35.25;;
27899;SDS011;15243;50.726;7.080;2023-02-12T05:23:46;70.13;;;32.70;;
27899;SDS011;15243;50.726;7.080;2023-02-12T05:26:14;73.40;;;34.90;;
27899;SDS011;15243;50.726;7.080;2023-02-12T05:28:45;62.63;;;33.53;;
27899;SDS011;15243;50.726;7.080;2023-02-12T05:31:13;65.82;;;33.20;;
27899;SDS011;15243;50.726;7.080;2023-02-12T05:33:46;66.82;;;32.78;;
27899;SDS011;15243;50.726;7.080;2023-02-12T05:36:14;66.28;;;33.72;;
27899;SDS011;15243;50.726;7.080;2023-02-12T05:38:46;65.32;;;33.28;;
27899;SDS011;15243;50.726;7.080;2023-02-12T05:41:15;68.10;;;32.65;;
27899;SDS011;15243;50.726;7.080;2023-02-12T05:43:44;66.53;;;32.67;;
27899;SDS011;15243;50.726;7.080;2023-02-12T05:46:14;62.92;;;31.45;;
27899;SDS011;15243;50.726;7.080;2023-02-12T05:48:42;77.68;;;34.95;;
27899;SDS011;15243;50.726;7.080;2023-02-12T05:51:10;68.85;;;33.60;;
27899;SDS011;15243;50.726;7.080;2023-02-12T05:53:39;66.63;;;33.10;;
27899;SDS011;15243;50.726;7.080;2023-02-12T05:58:38;74.30;;;34.03;;
27899;SDS011;15243;50.726;7.080;2023-02-12T06:01:08;68.47;;;34.15;;
27899;SDS011;15243;50.726;7.080;2023-02-12T06:03:39;69.63;;;33.30;;
27899;SDS011;15243;50.726;7.080;2023-02-12T06:06:06;81.80;;;36.03;;
27899;SDS011;15243;50.726;7.080;2023-02-12T06:08:33;78.13;;;34.95;;
27899;SDS011;15243;50.726;7.080;2023-02-12T06:11:04;71.60;;;34.28;;
27899;SDS011;15243;50.726;7.080;2023-02-12T06:13:33;75.72;;;35.20;;
27899;SDS011;15243;50.726;7.080;2023-02-12T06:16:00;69.28;;;33.53;;
27899;SDS011;15243;50.726;7.080;2023-02-12T06:18:27;76.05;;;34.22;;
27899;SDS011;15243;50.726;7.080;2023-02-12T06:20:55;70.25;;;33.30;;
27899;SDS011;15243;50.726;7.080;2023-02-12T06:23:23;75.80;;;33.40;;
27899;SDS011;15243;50.726;7.080;2023-02-12T06:25:50;76.70;;;34.10;;
27899;SDS011;15243;50.726;7.080;2023-02-12T06:28:22;78.65;;;36.03;;
27899;SDS011;15243;50.726;7.080;2023-02-12T06:30:50;92.45;;;39.20;;
27899;SDS011;15243;50.726;7.080;2023-02-12T06:33:17;93.15;;;40.88;;
27899;SDS011;15243;50.726;7.080;2023-02-12T06:35:44;78.97;;;37.55;;
27899;SDS011;15243;50.726;7.080;2023-02-12T06:38:10;74.47;;;34.65;;
27899;SDS011;15243;50.726;7.080;2023-02-12T06:40:37;78.35;;;36.35;;
27899;SDS011;15243;50.726;7.080;2023-02-12T06:43:04;82.07;;;38.58;;
27899;SDS011;15243;50.726;7.080;2023-02-12T06:45:31;84.43;;;38.17;;
27899;SDS011;15243;50.726;7.080;2023-02-12T06:47:58;82.35;;;39.35;;
27899;SDS011;15243;50.726;7.080;2023-02-12T06:50:25;85.60;;;40.03;;
27899;SDS011;15243;50.726;7.080;2023-02-12T06:52:52;75.55;;;38.25;;
27899;SDS011;15243;50.726;7.080;2023-02-12T06:55:19;84.90;;;41.33;;
27899;SDS011;15243;50.726;7.080;2023-02-12T06:57:46;74.38;;;37.65;;
27899;SDS011;15243;50.726;7.080;2023-02-12T07:00:13;80.82;;;39.33;;
27899;SDS011;15243;50.726;7.080;2023-02-12T07:02:40;77.53;;;39.17;;
27899;SDS011;15243;50.726;7.080;2023-02-12T07:05:06;78.35;;;39.13;;
27899;SDS011;15243;50.726;7.080;2023-02-12T07:07:33;72.47;;;37.10;;
27899;SDS011;15243;50.726;7.080;2023-02-12T07:10:00;84.85;;;39.95;;
27899;SDS011;15243;50.726;7.080;2023-02-12T07:12:27;78.15;;;38.47;;
27899;SDS011;15243;50.726;7.080;2023-02-12T07:14:54;78.43;;;37.97;;
27899;SDS011;15243;50.726;7.080;2023-02-12T07:17:20;80.55;;;39.83;;
27899;SDS011;15243;50.726;7.080;2023-02-12T07:19:47;71.93;;;37.75;;
27899;SDS011;15243;50.726;7.080;2023-02-12T07:22:14;81.88;;;37.13;;
27899;SDS011;15243;50.726;7.080;2023-02-12T07:24:41;76.50;;;37.30;;
27899;SDS011;15243;50.726;7.080;2023-02-12T07:27:08;70.60;;;37.22;;
27899;SDS011;15243;50.726;7.080;2023-02-12T07:29:35;73.32;;;37.30;;
27899;SDS011;15243;50.726;7.080;2023-02-12T07:32:02;77.03;;;37.25;;
27899;SDS011;15243;50.726;7.080;2023-02-12T07:34:29;79.15;;;37.47;;
27899;SDS011;15243;50.726;7.080;2023-02-12T07:36:56;75.32;;;35.13;;
27899;SDS011;15243;50.726;7.080;2023-02-12T07:39:23;74.10;;;35.38;;
27899;SDS011;15243;50.726;7.080;2023-02-12T07:41:50;75.90;;;35.28;;
27899;SDS011;15243;50.726;7.080;2023-02-12T07:44:16;71.05;;;34.53;;
27899;SDS011;15243;50.726;7.080;2023-02-12T07:46:44;71.55;;;35.53;;
27899;SDS011;15243;50.726;7.080;2023-02-12T07:49:15;75.25;;;35.53;;
27899;SDS011;15243;50.726;7.080;2023-02-12T07:51:43;73.15;;;34.90;;
27899;SDS011;15243;50.726;7.080;2023-02-12T07:54:11;78.20;;;35.80;;
27899;SDS011;15243;50.726;7.080;2023-02-12T07:56:39;71.30;;;34.22;;
27899;SDS011;15243;50.726;7.080;2023-02-12T07:59:09;82.47;;;38.90;;
27899;SDS011;15243;50.726;7.080;2023-02-12T08:01:38;71.53;;;36.10;;
27899;SDS011;15243;50.726;7.080;2023-02-12T08:04:08;67.75;;;32.47;;
27899;SDS011;15243;50.726;7.080;2023-02-12T08:06:39;78.57;;;36.97;;
27899;SDS011;15243;50.726;7.080;2023-02-12T08:09:11;70.18;;;33.97;;
27899;SDS011;15243;50.726;7.080;2023-02-12T08:11:40;84.30;;;37.65;;
27899;SDS011;15243;50.726;7.080;2023-02-12T08:14:09;74.38;;;35.22;;
27899;SDS011;15243;50.726;7.080;2023-02-12T08:16:38;80.15;;;38.83;;
27899;SDS011;15243;50.726;7.080;2023-02-12T08:19:05;78.30;;;39.80;;
27899;SDS011;15243;50.726;7.080;2023-02-12T08:21:47;80.05;;;40.35;;
27899;SDS011;15243;50.726;7.080;2023-02-12T08:24:15;77.38;;;39.78;;
27899;SDS011;15243;50.726;7.080;2023-02-12T08:26:43;73.72;;;39.25;;
27899;SDS011;15243;50.726;7.080;2023-02-12T08:29:11;73.40;;;39.55;;
27899;SDS011;15243;50.726;7.080;2023-02-12T08:31:42;78.13;;;38.85;;
27899;SDS011;15243;50.726;7.080;2023-02-12T08:34:14;77.93;;;40.85;;
27899;SDS011;15243;50.726;7.080;2023-02-12T08:36:44;74.30;;;39.97;;
27899;SDS011;15243;50.726;7.080;2023-02-12T08:39:12;78.60;;;39.83;;
27899;SDS011;15243;50.726;7.080;2023-02-12T08:41:39;75.47;;;38.83;;
27899;SDS011;15243;50.726;7.080;2023-02-12T08:44:09;78.80;;;39.95;;
27899;SDS011;15243;50.726;7.080;2023-02-12T08:46:37;74.80;;;36.95;;
27899;SDS011;15243;50.726;7.080;2023-02-12T08:49:16;73.43;;;38.70;;
27899;SDS011;15243;50.726;7.080;2023-02-12T08:51:45;73.97;;;38.47;;
27899;SDS011;15243;50.726;7.080;2023-02-12T08:54:17;75.00;;;39.28;;
27899;SDS011;15243;50.726;7.080;2023-02-12T08:56:45;70.25;;;37.00;;
27899;SDS011;15243;50.726;7.080;2023-02-12T08:59:13;74.35;;;38.63;;
27899;SDS011;15243;50.726;7.080;2023-02-12T09:01:41;72.07;;;38.13;;
27899;SDS011;15243;50.726;7.080;2023-02-12T09:04:13;73.88;;;37.60;;
27899;SDS011;15243;50.726;7.080;2023-02-12T09:06:47;75.38;;;38.85;;
27899;SDS011;15243;50.726;7.080;2023-02-12T09:09:14;78.38;;;39.80;;
27899;SDS011;15243;50.726;7.080;2023-02-12T09:11:42;78.47;;;38.83;;
27899;SDS011;15243;50.726;7.080;2023-02-12T09:14:10;74.43;;;37.92;;
27899;SDS011;15243;50.726;7.080;2023-02-12T09:16:39;77.43;;;38.28;;
27899;SDS011;15243;50.726;7.080;2023-02-12T09:19:07;80.07;;;39.38;;
27899;SDS011;15243;50.726;7.080;2023-02-12T09:21:36;76.32;;;37.97;;
27899;SDS011;15243;50.726;7.080;2023-02-12T09:24:03;81.88;;;39.20;;
27899;SDS011;15243;50.726;7.080;2023-02-12T09:26:30;78.82;;;39.20;;
27899;SDS011;15243;50.726;7.080;2023-02-12T09:28:57;82.47;;;40.45;;
27899;SDS011;15243;50.726;7.080;2023-02-12T09:31:25;74.25;;;38.58;;
27899;SDS011;15243;50.726;7.080;2023-02-12T09:33:54;75.28;;;38.63;;
27899;SDS011;15243;50.726;7.080;2023-02-12T09:36:24;72.90;;;37.90;;
27899;SDS011;15243;50.726;7.080;2023-02-12T09:38:51;73.30;;;38.25;;
27899;SDS011;15243;50.726;7.080;2023-02-12T09:41:26;89.78;;;41.88;;
27899;SDS011;15243;50.726;7.080;2023-02-12T09:49:23;96.78;;;43.50;;
27899;SDS011;15243;50.726;7.080;2023-02-12T09:51:58;82.38;;;41.85;;
27899;SDS011;15243;50.726;7.080;2023-02-12T09:54:28;78.07;;;40.95;;
27899;SDS011;15243;50.726;7.080;2023-02-12T09:57:03;80.63;;;42.25;;
27899;SDS011;15243;50.726;7.080;2023-02-12T09:59:42;87.72;;;41.42;;
27899;SDS011;15243;50.726;7.080;2023-02-12T10:02:15;86.32;;;41.70;;
27899;SDS011;15243;50.726;7.080;2023-02-12T10:04:43;86.15;;;42.30;;
27899;SDS011;15243;50.726;7.080;2023-02-12T10:07:29;98.15;;;43.80;;
27899;SDS011;15243;50.726;7.080;2023-02-12T10:12:59;92.50;;;43.75;;
27899;SDS011;15243;50.726;7.080;2023-02-12T10:15:31;97.50;;;45.28;;
27899;SDS011;15243;50.726;7.080;2023-02-12T10:23:46;93.75;;;43.90;;
27899;SDS011;15243;50.726;7.080;2023-02-12T10:26:38;95.53;;;44.78;;
27899;SDS011;15243;50.726;7.080;2023-02-12T10:29:13;101.55;;;48.17;;
27899;SDS011;15243;50.726;7.080;2023-02-12T10:31:59;95.63;;;45.15;;
27899;SDS011;15243;50.726;7.080;2023-02-12T10:34:34;92.53;;;44.92;;
27899;SDS011;15243;50.726;7.080;2023-02-12T10:37:14;90.13;;;43.13;;
27899;SDS011;15243;50.726;7.080;2023-02-12T10:39:47;87.22;;;43.75;;
27899;SDS011;15243;50.726;7.080;2023-02-12T10:42:38;91.22;;;42.60;;
27899;SDS011;15243;50.726;7.080;2023-02-12T10:45:18;83.75;;;40.38;;
27899;SDS011;15243;50.726;7.080;2023-02-12T10:47:48;76.65;;;40.17;;
27899;SDS011;15243;50.726;7.080;2023-02-12T10:50:36;88.88;;;43.20;;
27899;SDS011;15243;50.726;7.080;2023-02-12T10:53:24;89.97;;;40.35;;
27899;SDS011;15243;50.726;7.080;2023-02-12T10:56:15;84.65;;;41.80;;
27899;SDS011;15243;50.726;7.080;2023-02-12T11:03:59;92.15;;;43.00;;
27899;SDS011;15243;50.726;7.080;2023-02-12T11:07:03;89.65;;;42.75;;
27899;SDS011;15243;50.726;7.080;2023-02-12T11:09:39;87.10;;;42.33;;
27899;SDS011;15243;50.726;7.080;2023-02-12T11:14:57;82.45;;;40.33;;
27899;SDS011;15243;50.726;7.080;2023-02-12T11:17:37;80.93;;;39.55;;
27899;SDS011;15243;50.726;7.080;2023-02-12T11:22:52;75.78;;;39.30;;
27899;SDS011;15243;50.726;7.080;2023-02-12T11:25:20;76.50;;;37.13;;
27899;SDS011;15243;50.726;7.080;2023-02-12T11:27:57;80.47;;;38.00;;
27899;SDS011;15243;50.726;7.080;2023-02-12T11:30:59;83.65;;;40.90;;
27899;SDS011;15243;50.726;7.080;2023-02-12T11:33:46;75.22;;;38.17;;
27899;SDS011;15243;50.726;7.080;2023-02-12T11:36:37;79.05;;;36.40;;
27899;SDS011;15243;50.726;7.080;2023-02-12T11:39:19;75.75;;;36.55;;
27899;SDS011;15243;50.726;7.080;2023-02-12T11:41:56;76.25;;;37.25;;
27899;SDS011;15243;50.726;7.080;2023-02-12T11:44:26;73.85;;;37.75;;
27899;SDS011;15243;50.726;7.080;2023-02-12T11:47:00;77.05;;;37.30;;
27899;SDS011;15243;50.726;7.080;2023-02-12T11:49:37;77.07;;;35.80;;
27899;SDS011;15243;50.726;7.080;2023-02-12T11:52:31;78.95;;;37.28;;
27899;SDS011;15243;50.726;7.080;2023-02-12T11:54:58;82.45;;;36.88;;
27899;SDS011;15243;50.726;7.080;2023-02-12T12:00:19;67.38;;;34.63;;
27899;SDS011;15243;50.726;7.080;2023-02-12T12:03:09;66.50;;;31.35;;
27899;SDS011;15243;50.726;7.080;2023-02-12T12:05:43;64.40;;;31.10;;
27899;SDS011;15243;50.726;7.080;2023-02-12T12:08:16;61.47;;;30.48;;
27899;SDS011;15243;50.726;7.080;2023-02-12T12:11:25;61.75;;;30.83;;
27899;SDS011;15243;50.726;7.080;2023-02-12T12:14:15;60.03;;;28.92;;
27899;SDS011;15243;50.726;7.080;2023-02-12T12:16:56;54.92;;;28.55;;
27899;SDS011;15243;50.726;7.080;2023-02-12T12:19:58;61.67;;;28.67;;
27899;SDS011;15243;50.726;7.080;2023-02-12T12:33:19;65.40;;;30.08;;
27899;SDS011;15243;50.726;7.080;2023-02-12T12:38:36;66.40;;;31.30;;
27899;SDS011;15243;50.726;7.080;2023-02-12T12:41:20;62.78;;;31.98;;
27899;SDS011;15243;50.726;7.080;2023-02-12T12:44:02;66.43;;;30.10;;
27899;SDS011;15243;50.726;7.080;2023-02-12T12:58:23;61.40;;;30.55;;
27899;SDS011;15243;50.726;7.080;2023-02-12T13:00:59;58.60;;;28.90;;
27899;SDS011;15243;50.726;7.080;2023-02-12T13:15:16;55.40;;;26.70;;
27899;SDS011;15243;50.726;7.080;2023-02-12T13:27:09;49.40;;;24.83;;
27899;SDS011;15243;50.726;7.080;2023-02-12T13:29:20;49.80;;;26.42;;
27899;SDS011;15243;50.726;7.080;2023-02-12T13:32:03;50.08;;;25.23;;
27899;SDS011;15243;50.726;7.080;2023-02-12T13:34:52;54.30;;;25.58;;
27899;SDS011;15243;50.726;7.080;2023-02-12T13:37:40;55.80;;;28.42;;
27899;SDS011;15243;50.726;7.080;2023-02-12T13:40:17;60.60;;;28.02;;
27899;SDS011;15243;50.726;7.080;2023-02-12T13:45:34;55.15;;;27.45;;
27899;SDS011;15243;50.726;7.080;2023-02-12T13:48:31;51.78;;;26.70;;
27899;SDS011;15243;50.726;7.080;2023-02-12T13:56:41;55.67;;;27.83;;
27899;SDS011;15243;50.726;7.080;2023-02-12T14:04:44;56.08;;;27.73;;
27899;SDS011;15243;50.726;7.080;2023-02-12T14:07:19;51.90;;;26.27;;
27899;SDS011;15243;50.726;7.080;2023-02-12T14:14:50;49.58;;;26.20;;
27899;SDS011;15243;50.726;7.080;2023-02-12T14:20:39;52.05;;;26.63;;
27899;SDS011;15243;50.726;7.080;2023-02-12T14:27:44;50.78;;;26.67;;
27899;SDS011;15243;50.726;7.080;2023-02-12T14:30:24;52.38;;;26.50;;
27899;SDS011;15243;50.726;7.080;2023-02-12T14:38:01;54.67;;;27.27;;
27899;SDS011;15243;50.726;7.080;2023-02-12T14:43:03;57.00;;;27.73;;
27899;SDS011;15243;50.726;7.080;2023-02-12T14:45:49;54.20;;;26.45;;
27899;SDS011;15243;50.726;7.080;2023-02-12T14:51:32;53.50;;;26.75;;
27899;SDS011;15243;50.726;7.080;2023-02-12T14:54:01;53.40;;;26.83;;
27899;SDS011;15243;50.726;7.080;2023-02-12T14:56:32;51.25;;;25.75;;
27899;SDS011;15243;50.726;7.080;2023-02-12T14:59:08;55.88;;;27.40;;
27899;SDS011;15243;50.726;7.080;2023-02-12T15:01:43;51.17;;;25.20;;
27899;SDS011;15243;50.726;7.080;2023-02-12T15:04:15;60.00;;;26.98;;
27899;SDS011;15243;50.726;7.080;2023-02-12T15:07:07;47.05;;;25.15;;
27899;SDS011;15243;50.726;7.080;2023-02-12T15:09:41;49.63;;;25.50;;
27899;SDS011;15243;50.726;7.080;2023-02-12T15:14:47;51.83;;;25.30;;
27899;SDS011;15243;50.726;7.080;2023-02-12T15:17:36;47.10;;;24.30;;
27899;SDS011;15243;50.726;7.080;2023-02-12T15:20:15;51.15;;;26.13;;
27899;SDS011;15243;50.726;7.080;2023-02-12T15:22:48;43.53;;;23.42;;
27899;SDS011;15243;50.726;7.080;2023-02-12T15:27:58;46.67;;;23.33;;
27899;SDS011;15243;50.726;7.080;2023-02-12T15:30:29;44.28;;;22.60;;
27899;SDS011;15243;50.726;7.080;2023-02-12T15:33:00;40.00;;;21.58;;
27899;SDS011;15243;50.726;7.080;2023-02-12T15:35:30;43.45;;;21.60;;
27899;SDS011;15243;50.726;7.080;2023-02-12T15:37:59;38.60;;;21.42;;
27899;SDS011;15243;50.726;7.080;2023-02-12T15:40:28;37.97;;;19.55;;
27899;SDS011;15243;50.726;7.080;2023-02-12T15:43:00;42.58;;;21.10;;
27899;SDS011;15243;50.726;7.080;2023-02-12T15:45:34;33.00;;;18.23;;
27899;SDS011;15243;50.726;7.080;2023-02-12T15:50:44;26.80;;;14.80;;
27899;SDS011;15243;50.726;7.080;2023-02-12T15:53:27;30.45;;;15.13;;
27899;SDS011;15243;50.726;7.080;2023-02-12T15:55:56;27.45;;;14.32;;
27899;SDS011;15243;50.726;7.080;2023-02-12T15:58:28;29.95;;;15.40;;
27899;SDS011;15243;50.726;7.080;2023-02-12T16:01:05;32.60;;;16.38;;
27899;SDS011;15243;50.726;7.080;2023-02-12T16:03:34;25.98;;;14.68;;
27899;SDS011;15243;50.726;7.080;2023-02-12T16:06:03;30.40;;;15.27;;
27899;SDS011;15243;50.726;7.080;2023-02-12T16:08:39;28.38;;;14.30;;
27899;SDS011;15243;50.726;7.080;2023-02-12T16:11:10;29.77;;;14.30;;
27899;SDS011;15243;50.726;7.080;2023-02-12T16:13:41;25.58;;;13.25;;
27899;SDS011;15243;50.726;7.080;2023-02-12T16:18:41;23.13;;;12.52;;
27899;SDS011;15243;50.726;7.080;2023-02-12T16:23:47;29.27;;;13.05;;
27899;SDS011;15243;50.726;7.080;2023-02-12T16:26:23;23.88;;;13.40;;
27899;SDS011;15243;50.726;7.080;2023-02-12T16:28:53;26.50;;;12.95;;
27899;SDS011;15243;50.726;7.080;2023-02-12T16:31:24;27.20;;;12.20;;
27899;SDS011;15243;50.726;7.080;2023-02-12T16:33:54;22.02;;;11.85;;
27899;SDS011;15243;50.726;7.080;2023-02-12T16:41:21;24.60;;;12.98;;
27899;SDS011;15243;50.726;7.080;2023-02-12T16:48:57;21.80;;;12.32;;
27899;SDS011;15243;50.726;7.080;2023-02-12T16:53:58;25.50;;;13.82;;
27899;SDS011;15243;50.726;7.080;2023-02-12T16:56:27;26.92;;;14.88;;
27899;SDS011;15243;50.726;7.080;2023-02-12T16:58:57;28.70;;;16.45;;
27899;SDS011;15243;50.726;7.080;2023-02-12T17:01:26;35.33;;;16.90;;
27899;SDS011;15243;50.726;7.080;2023-02-12T17:04:04;28.60;;;15.65;;
27899;SDS011;15243;50.726;7.080;2023-02-12T17:06:33;29.42;;;17.10;;
27899;SDS011;15243;50.726;7.080;2023-02-12T17:09:00;34.72;;;18.10;;
27899;SDS011;15243;50.726;7.080;2023-02-12T17:11:27;32.30;;;17.33;;
27899;SDS011;15243;50.726;7.080;2023-02-12T17:13:57;27.75;;;16.17;;
27899;SDS011;15243;50.726;7.080;2023-02-12T17:16:25;37.05;;;17.60;;
27899;SDS011;15243;50.726;7.080;2023-02-12T17:18:57;32.30;;;16.88;;
27899;SDS011;15243;50.726;7.080;2023-02-12T17:21:29;35.00;;;18.23;;
27899;SDS011;15243;50.726;7.080;2023-02-12T17:24:03;38.42;;;19.00;;
27899;SDS011;15243;50.726;7.080;2023-02-12T17:26:48;33.95;;;18.73;;
27899;SDS011;15243;50.726;7.080;2023-02-12T17:29:16;34.95;;;18.88;;
27899;SDS011;15243;50.726;7.080;2023-02-12T17:31:44;32.38;;;18.35;;
27899;SDS011;15243;50.726;7.080;2023-02-12T17:34:11;36.08;;;19.33;;
27899;SDS011;15243;50.726;7.080;2023-02-12T17:36:38;38.00;;;19.27;;
27899;SDS011;15243;50.726;7.080;2023-02-12T17:39:05;36.70;;;19.20;;
27899;SDS011;15243;50.726;7.080;2023-02-12T17:41:33;33.28;;;18.63;;
27899;SDS011;15243;50.726;7.080;2023-02-12T17:44:00;35.08;;;18.80;;
27899;SDS011;15243;50.726;7.080;2023-02-12T17:46:27;38.53;;;20.17;;
27899;SDS011;15243;50.726;7.080;2023-02-12T17:48:56;36.70;;;19.52;;
27899;SDS011;15243;50.726;7.080;2023-02-12T17:51:23;34.33;;;19.23;;
27899;SDS011;15243;50.726;7.080;2023-02-12T17:53:50;34.40;;;17.77;;
27899;SDS011;15243;50.726;7.080;2023-02-12T17:56:18;32.25;;;18.40;;